Terminal Aerodrome Forecast
Issued by NWS Omaha/Valley, NE

Home | Current Version | Previous Version | Text Only | Print | Product List | Glossary On
Versions: 1 2 3 4 5 6 7 8 9 10 11 12 13 14 15 16 17 18 19 20 21 22 23 24 25 26 27 28 29 30 31 32 33 34 35 36 37
000
FTUS43 KOAX 110310 AAA
TAFLNK
TAF AMD
KLNK 110310Z 1103/1124 03010KT P6SM SCT012 SCT250
     FM110500 03009KT P6SM SCT012 BKN040
      TEMPO 1105/1108 OVC012
     FM110800 04006KT P6SM OVC015
      TEMPO 1109/1113 5SM BR
     FM112100 17010KT P6SM SCT020 BKN050=

USA.gov is the U.S. government's official web portal to all federal, state and local government web resources and services.